createdAt,value
2019-01-15T00:01:19.544Z,99761.03
2019-01-15T00:03:48.323Z,99754.08
2019-01-15T00:06:17.093Z,99760.75
2019-01-15T00:08:45.780Z,99762.78
2019-01-15T00:11:14.547Z,99753.54
2019-01-15T00:13:43.368Z,99750.05
2019-01-15T00:16:12.132Z,99757.74
2019-01-15T00:18:40.823Z,99752.65
2019-01-15T00:21:09.528Z,99752.65
2019-01-15T00:23:38.284Z,99758.41
2019-01-15T00:26:07.060Z,99757.91
2019-01-15T00:28:35.757Z,99748.86
2019-01-15T00:31:04.521Z,99747.76
2019-01-15T00:33:33.598Z,99749.61
2019-01-15T00:36:03.339Z,99759.72
2019-01-15T00:38:32.483Z,99764.19
2019-01-15T00:41:01.174Z,99757.97
2019-01-15T00:43:30.001Z,99762.72
2019-01-15T00:45:58.825Z,99761.97
2019-01-15T00:48:27.507Z,99763.97
2019-01-15T00:50:56.440Z,99762.66
2019-01-15T00:53:25.212Z,99762.66
2019-01-15T00:55:54.014Z,99757.44
2019-01-15T00:58:22.745Z,99757.44
2019-01-15T01:00:51.508Z,99757.09
2019-01-15T01:03:20.600Z,99770.73
2019-01-15T01:05:49.408Z,99762.27
2019-01-15T01:08:18.447Z,99762.27
2019-01-15T01:10:47.422Z,99757.23
2019-01-15T01:13:16.103Z,99761.66
2019-01-15T01:15:44.792Z,99761.84
2019-01-15T01:18:13.494Z,99761.98
2019-01-15T01:20:42.186Z,99768.05
2019-01-15T01:23:10.972Z,99771.02
2019-01-15T01:25:39.669Z,99782.05
2019-01-15T01:28:08.445Z,99777.00
2019-01-15T01:30:37.208Z,99777.82
2019-01-15T01:33:06.265Z,99776.19
2019-01-15T01:35:35.021Z,99771.64
2019-01-15T01:38:03.800Z,99781.00
2019-01-15T01:40:32.508Z,99787.36
2019-01-15T01:43:01.199Z,99787.36
2019-01-15T01:45:29.907Z,99783.44
2019-01-15T01:47:58.604Z,99781.16
2019-01-15T01:50:27.650Z,99780.02
2019-01-15T01:52:56.427Z,99780.02
2019-01-15T01:55:25.257Z,99786.44
2019-01-15T01:57:54.343Z,99792.30
2019-01-15T02:00:23.126Z,99792.35
2019-01-15T02:02:51.801Z,99795.89
2019-01-15T02:05:20.569Z,99792.41
2019-01-15T02:07:49.427Z,99799.19
2019-01-15T02:10:19.788Z,99802.95
2019-01-15T02:12:49.160Z,99802.95
2019-01-15T02:15:20.431Z,99803.50
2019-01-15T02:17:49.196Z,99802.81
2019-01-15T02:20:19.652Z,99809.44
2019-01-15T02:22:48.560Z,99807.34
2019-01-15T02:25:17.497Z,99811.67
2019-01-15T02:27:48.767Z,99817.30
2019-01-15T02:30:19.588Z,99821.13
2019-01-15T02:32:48.344Z,99811.72
2019-01-15T02:35:17.129Z,99807.33
2019-01-15T02:37:45.903Z,99813.78
2019-01-15T02:40:14.794Z,99816.53
2019-01-15T02:42:46.896Z,99809.44
2019-01-15T02:45:15.410Z,99807.93
2019-01-15T02:47:44.331Z,99805.89
2019-01-15T02:50:15.006Z,99805.89
2019-01-15T02:52:44.125Z,99799.69
2019-01-15T02:55:13.833Z,99802.13
2019-01-15T02:57:42.609Z,99789.14
2019-01-15T03:00:17.370Z,99783.62
2019-01-15T03:02:46.153Z,99776.30
2019-01-15T03:05:15.231Z,99773.78
2019-01-15T03:07:43.984Z,99770.14
2019-01-15T03:10:14.323Z,99760.14
2019-01-15T03:12:45.116Z,99762.83
2019-01-15T03:15:13.917Z,99772.37
2019-01-15T03:17:42.730Z,99781.53
2019-01-15T03:20:11.783Z,99788.86
2019-01-15T03:22:40.541Z,99789.19
2019-01-15T03:25:09.644Z,99786.16
2019-01-15T03:27:38.452Z,99795.72
2019-01-15T03:30:09.222Z,99794.14
2019-01-15T03:32:37.895Z,99803.24
2019-01-15T03:35:06.875Z,99800.91
2019-01-15T03:37:35.656Z,99800.05
2019-01-15T03:40:06.129Z,99800.98
2019-01-15T03:42:34.834Z,99790.19
2019-01-15T03:45:05.124Z,99784.35
2019-01-15T03:47:33.997Z,99785.48
2019-01-15T03:50:03.034Z,99781.66
2019-01-15T03:52:31.875Z,99775.27
2019-01-15T03:55:00.560Z,99772.38
2019-01-15T03:57:29.251Z,99767.95
2019-01-15T03:59:58.007Z,99764.02
2019-01-15T04:02:26.817Z,99755.19
2019-01-15T04:04:55.534Z,99758.08
2019-01-15T04:07:24.527Z,99743.94
2019-01-15T04:09:53.426Z,99747.22
2019-01-15T04:12:22.571Z,99743.77
2019-01-15T04:14:51.278Z,99743.17
2019-01-15T04:17:19.971Z,99741.70
2019-01-15T04:19:48.679Z,99744.55
2019-01-15T04:22:17.790Z,99747.75
2019-01-15T04:24:46.469Z,99755.63
2019-01-15T04:27:15.311Z,99758.23
2019-01-15T04:29:44.074Z,99759.48
2019-01-15T04:32:12.840Z,99752.55
2019-01-15T04:34:41.535Z,99745.09
2019-01-15T04:37:10.281Z,99745.09
2019-01-15T04:39:39.081Z,99743.05
2019-01-15T04:42:07.877Z,99744.13
2019-01-15T04:44:36.563Z,99745.79
2019-01-15T04:47:05.398Z,99745.79
2019-01-15T04:49:34.207Z,99744.36
2019-01-15T04:52:03.033Z,99742.27
2019-01-15T04:54:32.127Z,99742.27
2019-01-15T04:57:01.262Z,99739.91
2019-01-15T04:59:30.724Z,99741.84
2019-01-15T05:01:59.567Z,99744.51
2019-01-15T05:04:28.330Z,99737.44
2019-01-15T05:06:57.085Z,99736.41
2019-01-15T05:09:25.765Z,99732.67
2019-01-15T05:11:54.868Z,99739.51
2019-01-15T05:14:23.622Z,99735.59
2019-01-15T05:16:52.888Z,99727.12
2019-01-15T05:19:21.651Z,99727.12
2019-01-15T05:21:50.349Z,99729.78
2019-01-15T05:24:19.040Z,99732.73
2019-01-15T05:26:47.732Z,99720.47
2019-01-15T05:29:16.512Z,99720.47
2019-01-15T05:31:45.359Z,99728.66
2019-01-15T05:34:14.046Z,99728.32
2019-01-15T05:36:42.736Z,99724.39
2019-01-15T05:39:11.439Z,99719.78
2019-01-15T05:41:40.154Z,99719.98
2019-01-15T05:44:10.163Z,99717.88
2019-01-15T05:46:38.947Z,99713.91
2019-01-15T05:49:07.711Z,99711.86
2019-01-15T05:51:39.013Z,99710.94
2019-01-15T05:54:07.850Z,99711.81
2019-01-15T05:56:36.575Z,99701.77
2019-01-15T05:59:05.447Z,99711.54
2019-01-15T06:01:36.258Z,99706.25
2019-01-15T06:04:05.232Z,99711.52
2019-01-15T06:06:34.040Z,99704.20
2019-01-15T06:09:03.053Z,99705.50
2019-01-15T06:11:32.047Z,99703.21
2019-01-15T06:14:01.668Z,99703.26
2019-01-15T06:16:30.534Z,99697.82
2019-01-15T06:18:59.206Z,99702.27
2019-01-15T06:21:28.051Z,99695.83
2019-01-15T06:23:56.744Z,99699.27
2019-01-15T06:26:25.535Z,99697.09
2019-01-15T06:28:54.400Z,99691.69
2019-01-15T06:31:23.169Z,99695.87
2019-01-15T06:33:51.916Z,99692.02
2019-01-15T06:36:20.769Z,99703.27
2019-01-15T06:38:49.477Z,99704.92
2019-01-15T06:41:18.319Z,99702.17
2019-01-15T06:43:50.101Z,99702.38
2019-01-15T06:46:17.507Z,99695.84
2019-01-15T06:48:46.271Z,99696.64
2019-01-15T06:51:15.843Z,99693.91
2019-01-15T06:53:44.696Z,99695.02
2019-01-15T06:56:13.783Z,99689.35
2019-01-15T06:58:42.774Z,99699.28
2019-01-15T07:01:11.544Z,99692.28
2019-01-15T07:03:40.393Z,99689.02
2019-01-15T07:06:09.189Z,99687.77
2019-01-15T07:08:37.869Z,99700.66
2019-01-15T07:11:06.655Z,99698.90
2019-01-15T07:13:35.419Z,99691.78
2019-01-15T07:16:04.848Z,99693.16
2019-01-15T07:18:33.612Z,99701.27
2019-01-15T07:21:02.421Z,99694.83
2019-01-15T07:23:31.251Z,99694.77
2019-01-15T07:25:59.940Z,99696.34
2019-01-15T07:28:28.632Z,99696.14
2019-01-15T07:30:59.660Z,99696.02
2019-01-15T07:33:30.116Z,99692.81
2019-01-15T07:35:58.912Z,99701.52
2019-01-15T07:38:27.693Z,99706.20
2019-01-15T07:40:56.984Z,99708.69
2019-01-15T07:43:25.753Z,99703.55
2019-01-15T07:45:54.518Z,99704.30
2019-01-15T07:48:23.287Z,99705.00
2019-01-15T07:50:52.067Z,99709.69
2019-01-15T07:53:20.885Z,99712.24
2019-01-15T07:55:49.583Z,99716.51
2019-01-15T07:58:18.299Z,99714.61
2019-01-15T08:00:47.131Z,99712.31
2019-01-15T08:03:15.884Z,99707.48
2019-01-15T08:05:45.197Z,99714.25
2019-01-15T08:08:14.407Z,99714.85
2019-01-15T08:10:43.170Z,99710.98
2019-01-15T08:13:11.922Z,99709.28
2019-01-15T08:15:40.598Z,99707.02
2019-01-15T08:18:09.480Z,99708.14
2019-01-15T08:20:38.712Z,99710.69
2019-01-15T08:23:07.472Z,99717.94
2019-01-15T08:25:36.261Z,99716.45
2019-01-15T08:28:05.420Z,99717.34
2019-01-15T08:30:37.822Z,99719.08
2019-01-15T08:33:06.860Z,99725.28
2019-01-15T08:35:35.745Z,99722.56
2019-01-15T08:38:05.220Z,99722.56
2019-01-15T08:40:34.096Z,99722.62
2019-01-15T08:43:02.888Z,99731.44
2019-01-15T08:45:32.026Z,99729.25
2019-01-15T08:48:14.235Z,99733.02
2019-01-15T08:50:43.073Z,99727.61
2019-01-15T08:53:12.915Z,99732.36
2019-01-15T08:55:41.835Z,99735.16
2019-01-15T08:58:10.672Z,99732.77
2019-01-15T09:00:39.397Z,99728.08
2019-01-15T09:03:08.161Z,99737.13
2019-01-15T09:05:36.912Z,99737.42
2019-01-15T09:08:05.689Z,99733.27
2019-01-15T09:10:34.886Z,99737.44
2019-01-15T09:13:04.788Z,99740.01
2019-01-15T09:15:33.564Z,99743.59
2019-01-15T09:18:02.738Z,99735.48
2019-01-15T09:20:31.512Z,99739.65
2019-01-15T09:23:00.387Z,99739.38
2019-01-15T09:25:29.711Z,99750.08
2019-01-15T09:27:58.477Z,99748.80
2019-01-15T09:30:27.279Z,99752.36
2019-01-15T09:32:56.599Z,99752.45
2019-01-15T09:35:25.363Z,99752.66
2019-01-15T09:37:54.281Z,99755.09
2019-01-15T09:40:24.087Z,99750.70
2019-01-15T09:42:52.851Z,99753.27
2019-01-15T09:45:23.585Z,99755.45
2019-01-15T09:48:00.100Z,99752.69
2019-01-15T09:50:28.793Z,99751.73
2019-01-15T09:52:57.801Z,99745.61
2019-01-15T09:55:26.647Z,99749.27
2019-01-15T09:57:55.353Z,99743.94
2019-01-15T10:00:24.229Z,99749.48
2019-01-15T10:02:53.151Z,99749.55
2019-01-15T10:05:22.200Z,99748.81
2019-01-15T10:07:50.968Z,99749.16
2019-01-15T10:10:19.744Z,99744.87
2019-01-15T10:12:48.535Z,99744.70
2019-01-15T10:15:17.536Z,99749.61
2019-01-15T10:17:46.382Z,99745.75
2019-01-15T10:20:16.227Z,99740.11
2019-01-15T10:22:45.177Z,99732.72
2019-01-15T10:25:17.430Z,99738.62
2019-01-15T10:27:47.363Z,99739.19
2019-01-15T10:30:32.439Z,99729.69
2019-01-15T10:33:18.493Z,99730.94
2019-01-15T10:35:55.656Z,99730.28
2019-01-15T10:38:25.974Z,99728.58
2019-01-15T10:40:56.860Z,99724.05
2019-01-15T10:43:25.927Z,99720.42
2019-01-15T10:45:54.775Z,99719.45
2019-01-15T10:48:23.563Z,99713.06
2019-01-15T10:50:52.732Z,99711.67
2019-01-15T10:53:21.549Z,99706.61
2019-01-15T10:55:50.318Z,99704.58
2019-01-15T10:58:19.159Z,99705.15
2019-01-15T11:00:52.202Z,99702.41
2019-01-15T11:03:20.964Z,99697.70
2019-01-15T11:05:49.800Z,99697.66
2019-01-15T11:08:18.737Z,99701.72
2019-01-15T11:10:47.511Z,99704.89
2019-01-15T11:13:16.359Z,99696.41
2019-01-15T11:15:45.051Z,99691.75
2019-01-15T11:18:13.832Z,99686.44
2019-01-15T11:20:42.623Z,99684.74
2019-01-15T11:23:11.373Z,99684.97
2019-01-15T11:25:40.172Z,99679.73
2019-01-15T11:28:08.939Z,99683.99
2019-01-15T11:30:37.687Z,99677.50
2019-01-15T11:33:06.475Z,99672.03
2019-01-15T11:35:35.236Z,99677.23
2019-01-15T11:38:05.035Z,99675.05
2019-01-15T11:40:34.112Z,99678.81
2019-01-15T11:43:02.809Z,99672.53
2019-01-15T11:45:31.578Z,99675.32
2019-01-15T11:48:00.627Z,99667.08
2019-01-15T11:50:29.435Z,99668.32
2019-01-15T11:52:58.198Z,99665.76
2019-01-15T11:55:26.964Z,99668.84
2019-01-15T11:57:55.732Z,99665.50
2019-01-15T12:00:36.812Z,99658.16
2019-01-15T12:03:27.975Z,99656.13
2019-01-15T12:06:15.759Z,99659.74
2019-01-15T12:09:09.868Z,99658.77
2019-01-15T12:11:56.816Z,99658.50
2019-01-15T12:14:53.768Z,99650.09
2019-01-15T12:17:40.408Z,99653.20
2019-01-15T12:20:36.387Z,99657.31
2019-01-15T12:23:24.451Z,99658.70
2019-01-15T12:26:10.661Z,99651.08
2019-01-15T12:28:58.487Z,99643.69
2019-01-15T12:31:52.606Z,99641.05
2019-01-15T12:34:55.413Z,99637.48
2019-01-15T12:37:41.918Z,99634.84
2019-01-15T12:40:41.891Z,99628.26
2019-01-15T12:43:28.321Z,99626.84
2019-01-15T12:46:15.010Z,99630.49
2019-01-15T12:49:05.896Z,99626.36
2019-01-15T12:51:54.272Z,99617.43
2019-01-15T12:54:42.392Z,99616.28
2019-01-15T12:57:20.428Z,99617.76
2019-01-15T13:00:07.541Z,99616.39
2019-01-15T13:02:54.422Z,99610.73
2019-01-15T13:05:36.384Z,99610.23
2019-01-15T13:08:23.263Z,99605.74
2019-01-15T13:11:09.668Z,99601.12
2019-01-15T13:14:06.448Z,99598.08
2019-01-15T13:16:48.824Z,99598.61
2019-01-15T13:19:51.607Z,99596.61
2019-01-15T13:22:48.676Z,99595.97
2019-01-15T13:25:48.598Z,99597.65
2019-01-15T13:28:52.623Z,99601.84
2019-01-15T13:31:40.400Z,99594.05
2019-01-15T13:34:19.559Z,99591.69
2019-01-15T13:37:06.259Z,99590.59
2019-01-15T13:39:52.659Z,99588.52
2019-01-15T13:42:43.223Z,99581.83
2019-01-15T13:45:22.505Z,99578.08
2019-01-15T13:48:09.423Z,99580.13
2019-01-15T13:51:12.680Z,99574.77
2019-01-15T13:54:12.875Z,99584.94
2019-01-15T13:57:06.413Z,99581.11
2019-01-15T13:59:46.740Z,99576.63
2019-01-15T14:02:34.516Z,99577.66
2019-01-15T14:05:34.135Z,99586.64
2019-01-15T14:08:16.620Z,99584.16
2019-01-15T14:11:13.588Z,99583.14
2019-01-15T14:14:09.071Z,99578.35
2019-01-15T14:17:06.156Z,99574.75
2019-01-15T14:19:52.600Z,99570.72
2019-01-15T14:22:44.544Z,99574.87
2019-01-15T14:25:44.612Z,99572.59
2019-01-15T14:28:33.530Z,99585.11
2019-01-15T14:31:24.539Z,99583.79
2019-01-15T14:34:12.620Z,99590.05
2019-01-15T14:37:00.612Z,99583.98
2019-01-15T14:39:43.745Z,99590.20
2019-01-15T14:42:35.682Z,99586.70
2019-01-15T14:45:22.673Z,99588.58
2019-01-15T14:48:13.695Z,99588.87
2019-01-15T14:51:09.157Z,99586.80
2019-01-15T14:53:52.222Z,99579.44
2019-01-15T14:56:38.927Z,99583.36
2019-01-15T14:59:25.723Z,99578.95
2019-01-15T15:02:12.025Z,99579.03
2019-01-15T15:05:02.826Z,99573.94
2019-01-15T15:07:49.224Z,99573.15
2019-01-15T15:10:42.104Z,99567.63
2019-01-15T15:13:35.749Z,99571.73
2019-01-15T15:16:26.370Z,99573.34
2019-01-15T15:19:14.147Z,99574.48
2019-01-15T15:22:00.876Z,99569.55
2019-01-15T15:24:47.430Z,99571.73
2019-01-15T15:27:35.222Z,99567.97
2019-01-15T15:30:22.504Z,99573.49
2019-01-15T15:33:09.127Z,99568.56
2019-01-15T15:35:56.619Z,99572.13
2019-01-15T15:38:50.959Z,99564.94
2019-01-15T15:41:29.920Z,99573.19
2019-01-15T15:44:32.766Z,99568.10
2019-01-15T15:47:32.662Z,99573.37
2019-01-15T15:50:20.358Z,99573.17
2019-01-15T15:53:20.488Z,99571.06
2019-01-15T15:56:00.344Z,99568.36
2019-01-15T15:58:56.876Z,99578.44
2019-01-15T16:01:50.917Z,99574.90
2019-01-15T16:04:41.759Z,99576.86
2019-01-15T16:07:28.404Z,99579.58
2019-01-15T16:10:21.916Z,99581.48
2019-01-15T16:13:13.453Z,99571.48
2019-01-15T16:16:10.415Z,99580.55
2019-01-15T16:18:57.184Z,99575.74
2019-01-15T16:21:53.796Z,99581.02
2019-01-15T16:24:33.245Z,99584.09
2019-01-15T16:27:19.651Z,99574.95
2019-01-15T16:30:06.203Z,99576.20
2019-01-15T16:32:53.976Z,99573.45
2019-01-15T16:35:47.801Z,99568.97
2019-01-15T16:38:34.489Z,99578.05
2019-01-15T16:41:24.072Z,99578.98
2019-01-15T16:44:10.811Z,99571.88
2019-01-15T16:46:50.243Z,99574.28
2019-01-15T16:49:30.951Z,99567.39
2019-01-15T16:52:17.338Z,99563.75
2019-01-15T16:55:11.607Z,99557.95
2019-01-15T16:58:05.001Z,99561.98
2019-01-15T17:00:58.691Z,99559.61
2019-01-15T17:03:39.489Z,99560.52
2019-01-15T17:06:26.403Z,99551.30
2019-01-15T17:09:11.056Z,99553.02
2019-01-15T17:11:57.304Z,99549.86
2019-01-15T17:14:43.295Z,99554.60
2019-01-15T17:17:27.569Z,99552.12
2019-01-15T17:20:15.324Z,99554.14
2019-01-15T17:22:57.511Z,99552.37
2019-01-15T17:25:52.861Z,99547.89
2019-01-15T17:28:40.968Z,99551.46
2019-01-15T17:31:32.663Z,99550.74
2019-01-15T17:34:19.417Z,99550.94
2019-01-15T17:37:12.779Z,99550.94
2019-01-15T17:39:54.030Z,99546.05
2019-01-15T17:42:44.720Z,99546.20
2019-01-15T17:45:26.117Z,99551.46
2019-01-15T17:48:19.959Z,99551.39
2019-01-15T17:51:15.714Z,99559.43
2019-01-15T17:53:56.387Z,99550.94
2019-01-15T17:56:38.524Z,99550.15
2019-01-15T17:59:25.306Z,99548.57
2019-01-15T18:02:19.276Z,99547.52
2019-01-15T18:05:09.765Z,99551.01
2019-01-15T18:08:09.165Z,99545.78
2019-01-15T18:11:12.381Z,99547.70
2019-01-15T18:14:05.006Z,99544.88
2019-01-15T18:16:51.535Z,99547.89
2019-01-15T18:19:35.367Z,99548.56
2019-01-15T18:22:32.298Z,99546.47
2019-01-15T18:25:19.133Z,99542.89
2019-01-15T18:28:24.928Z,99547.06
2019-01-15T18:31:09.905Z,99543.67
2019-01-15T18:33:53.968Z,99539.16
2019-01-15T18:36:41.658Z,99543.70
2019-01-15T18:39:37.153Z,99546.98
2019-01-15T18:42:29.778Z,99543.55
2019-01-15T18:45:16.224Z,99536.70
2019-01-15T18:48:13.259Z,99538.22
2019-01-15T18:51:00.955Z,99545.46
2019-01-15T18:53:49.213Z,99538.02
2019-01-15T18:56:40.695Z,99526.64
2019-01-15T18:59:31.410Z,99535.02
2019-01-15T19:02:18.787Z,99524.67
2019-01-15T19:05:11.503Z,99528.87
2019-01-15T19:08:01.456Z,99527.11
2019-01-15T19:10:47.059Z,99525.45
2019-01-15T19:13:37.938Z,99523.95
2019-01-15T19:16:26.771Z,99521.84
2019-01-15T19:19:33.599Z,99522.64
2019-01-15T19:22:08.635Z,99521.70
2019-01-15T19:25:02.391Z,99520.31
2019-01-15T19:27:43.184Z,99519.86
2019-01-15T19:30:47.877Z,99521.70
2019-01-15T19:33:41.779Z,99513.95
2019-01-15T19:36:28.257Z,99511.97
2019-01-15T19:39:19.115Z,99514.59
2019-01-15T19:42:06.156Z,99511.70
2019-01-15T19:44:57.025Z,99509.22
2019-01-15T19:47:48.541Z,99510.66
2019-01-15T19:50:51.772Z,99512.64
2019-01-15T19:53:38.255Z,99506.97
2019-01-15T19:56:28.827Z,99503.16
2019-01-15T19:59:15.286Z,99504.07
2019-01-15T20:02:02.047Z,99503.42
2019-01-15T20:04:48.870Z,99500.72
2019-01-15T20:07:26.860Z,99503.16
2019-01-15T20:10:13.223Z,99505.13
2019-01-15T20:13:03.735Z,99505.98
2019-01-15T20:15:50.364Z,99507.23
2019-01-15T20:18:36.887Z,99502.42
2019-01-15T20:21:23.632Z,99498.16
2019-01-15T20:24:29.734Z,99503.81
2019-01-15T20:27:23.235Z,99500.80
2019-01-15T20:30:10.125Z,99508.23
2019-01-15T20:32:56.700Z,99506.31
2019-01-15T20:35:46.128Z,99505.06
2019-01-15T20:38:43.227Z,99506.84
2019-01-15T20:41:36.807Z,99512.04
2019-01-15T20:44:21.497Z,99513.43
2019-01-15T20:47:11.863Z,99507.91
2019-01-15T20:50:05.455Z,99506.32
2019-01-15T20:52:53.145Z,99503.53
2019-01-15T20:55:46.945Z,99502.22
2019-01-15T20:58:44.621Z,99499.80
2019-01-15T21:01:34.871Z,99489.16
2019-01-15T21:04:22.819Z,99497.36
2019-01-15T21:07:03.203Z,99486.91
2019-01-15T21:09:59.971Z,99488.67
2019-01-15T21:12:41.420Z,99484.80
2019-01-15T21:15:29.597Z,99485.71
2019-01-15T21:18:11.671Z,99481.83
2019-01-15T21:21:05.527Z,99480.14
2019-01-15T21:23:51.956Z,99477.96
2019-01-15T21:26:36.391Z,99488.16
2019-01-15T21:29:30.443Z,99484.73
2019-01-15T21:32:33.819Z,99485.91
2019-01-15T21:35:24.552Z,99483.76
2019-01-15T21:38:24.633Z,99482.82
2019-01-15T21:41:07.028Z,99480.33
2019-01-15T21:43:54.719Z,99473.23
2019-01-15T21:46:45.347Z,99475.86
2019-01-15T21:49:31.729Z,99471.12
2019-01-15T21:52:14.043Z,99463.08
2019-01-15T21:55:09.922Z,99461.09
2019-01-15T21:58:09.600Z,99466.36
2019-01-15T22:00:57.379Z,99463.80
2019-01-15T22:03:52.444Z,99473.39
2019-01-15T22:06:40.385Z,99464.96
2019-01-15T22:09:34.431Z,99462.85
2019-01-15T22:12:28.390Z,99463.20
2019-01-15T22:15:34.608Z,99463.05
2019-01-15T22:18:28.521Z,99464.70
2019-01-15T22:21:25.388Z,99456.16
2019-01-15T22:24:11.075Z,99462.59
2019-01-15T22:26:58.011Z,99455.41
2019-01-15T22:30:01.841Z,99449.16
2019-01-15T22:32:41.852Z,99443.03
2019-01-15T22:35:28.351Z,99443.26
2019-01-15T22:38:09.645Z,99440.14
2019-01-15T22:41:06.160Z,99439.05
2019-01-15T22:43:40.996Z,99440.37
2019-01-15T22:46:26.475Z,99434.42
2019-01-15T22:49:12.876Z,99442.20
2019-01-15T22:51:50.487Z,99435.48
2019-01-15T22:54:38.279Z,99435.22
2019-01-15T22:57:29.172Z,99431.45
2019-01-15T23:00:20.057Z,99430.36
2019-01-15T23:03:06.352Z,99429.23
2019-01-15T23:05:53.041Z,99427.05
2019-01-15T23:08:43.013Z,99428.44
2019-01-15T23:11:36.876Z,99412.99
2019-01-15T23:14:17.106Z,99416.41
2019-01-15T23:16:56.239Z,99412.99
2019-01-15T23:19:42.933Z,99404.56
2019-01-15T23:22:33.875Z,99400.09
2019-01-15T23:25:33.750Z,99407.13
2019-01-15T23:28:17.200Z,99398.98
2019-01-15T23:31:04.996Z,99391.59
2019-01-15T23:33:53.172Z,99394.91
2019-01-15T23:36:47.865Z,99392.92
2019-01-15T23:39:35.572Z,99396.85
2019-01-15T23:42:14.329Z,99383.86
2019-01-15T23:45:08.177Z,99382.09
2019-01-15T23:47:46.216Z,99381.08
2019-01-15T23:50:33.268Z,99380.02
2019-01-15T23:53:30.762Z,99367.00
2019-01-15T23:56:21.303Z,99365.36
2019-01-15T23:59:08.195Z,99358.85
